createdAt,value
2023-09-23T00:12:45.903Z,53.83
2023-09-23T00:27:47.569Z,51.83
2023-09-23T00:42:49.342Z,53.20
2023-09-23T00:57:54.752Z,52.40
2023-09-23T01:12:57.761Z,51.03
2023-09-23T01:27:59.429Z,48.83
2023-09-23T01:43:01.179Z,51.23
2023-09-23T01:58:03.094Z,48.47
2023-09-23T02:13:04.909Z,47.93
2023-09-23T02:28:06.958Z,45.57
2023-09-23T02:43:08.918Z,46.97
2023-09-23T02:58:11.637Z,47.80
2023-09-23T03:13:13.685Z,49.90
2023-09-23T03:28:18.815Z,47.67
2023-09-23T03:43:20.789Z,49.03
2023-09-23T03:58:22.576Z,47.17
2023-09-23T04:13:24.219Z,49.27
2023-09-23T04:28:25.940Z,43.27
2023-09-23T04:43:30.057Z,44.03
2023-09-23T04:58:32.447Z,48.80
2023-09-23T05:13:34.211Z,41.90
2023-09-23T05:28:35.853Z,49.93
2023-09-23T05:43:37.493Z,48.17
2023-09-23T05:58:39.204Z,50.63
2023-09-23T06:13:41.032Z,57.23
2023-09-23T06:28:42.684Z,55.37
2023-09-23T06:43:44.855Z,56.83
2023-09-23T06:58:46.763Z,58.73
2023-09-23T07:13:48.589Z,59.60
2023-09-23T07:28:53.179Z,62.47
2023-09-23T07:43:55.168Z,68.90
2023-09-23T07:58:57.355Z,65.40
2023-09-23T08:13:59.607Z,67.60
2023-09-23T08:29:01.340Z,64.67
2023-09-23T08:44:06.811Z,67.07
2023-09-23T08:59:10.147Z,71.23
2023-09-23T09:14:12.064Z,69.73
2023-09-23T09:29:15.188Z,69.00
2023-09-23T09:44:17.530Z,73.10
2023-09-23T09:59:31.536Z,74.20
2023-09-23T10:14:33.760Z,72.23
2023-09-23T10:29:51.282Z,78.53
2023-09-23T10:44:59.271Z,80.57
2023-09-23T11:00:01.237Z,86.07
2023-09-23T11:15:03.865Z,87.80
2023-09-23T11:30:06.304Z,85.07
2023-09-23T11:45:09.496Z,86.17
2023-09-23T12:00:12.179Z,86.10
2023-09-23T12:15:13.854Z,89.77
2023-09-23T12:30:18.773Z,88.30
2023-09-23T12:45:20.529Z,87.83
2023-09-23T13:00:22.872Z,88.53
2023-09-23T13:15:24.760Z,86.57
2023-09-23T13:30:26.607Z,94.83
2023-09-23T13:45:28.254Z,85.83
2023-09-23T14:00:30.333Z,86.20
2023-09-23T14:15:32.025Z,88.43
2023-09-23T14:30:33.732Z,81.80
2023-09-23T14:45:35.697Z,81.73
2023-09-23T15:00:37.391Z,85.13
2023-09-23T15:15:40.278Z,85.33
2023-09-23T15:30:43.537Z,83.83
2023-09-23T15:45:45.746Z,84.40
2023-09-23T16:00:47.994Z,82.57
2023-09-23T16:15:49.995Z,86.90
2023-09-23T16:30:52.024Z,77.50
2023-09-23T16:45:55.053Z,78.37
2023-09-23T17:00:56.950Z,79.50
2023-09-23T17:15:58.684Z,73.30
2023-09-23T17:31:00.394Z,82.53
2023-09-23T17:46:05.226Z,76.97
2023-09-23T18:01:07.131Z,76.33
2023-09-23T18:16:08.919Z,82.83
2023-09-23T18:31:10.876Z,85.33
2023-09-23T18:46:13.845Z,77.27
2023-09-23T19:01:16.254Z,79.10
2023-09-23T19:16:18.177Z,77.47
2023-09-23T19:31:20.414Z,81.97
2023-09-23T19:46:23.259Z,72.23
2023-09-23T20:01:25.364Z,68.80
2023-09-23T20:16:27.247Z,69.47
2023-09-23T20:31:29.118Z,66.23
2023-09-23T20:46:32.280Z,68.23
2023-09-23T21:01:35.314Z,62.67
2023-09-23T21:16:37.412Z,60.60
2023-09-23T21:31:39.768Z,59.43
2023-09-23T21:46:42.377Z,60.43
2023-09-23T22:01:44.741Z,66.87
2023-09-23T22:16:46.769Z,63.37
2023-09-23T22:31:48.921Z,65.30
2023-09-23T22:46:50.801Z,58.70
2023-09-23T23:01:52.876Z,59.43
2023-09-23T23:16:54.582Z,54.10
2023-09-23T23:31:56.259Z,56.37
2023-09-23T23:46:58.026Z,59.83
